Time;durP1;ratioP1;P1;durP2;ratioP2;P2;SDS_P1;SDS_P2;PMS_P1;PMS_P2;Temp;Humidity;BMP_temperature;BMP_pressure;BME280_temperature;BME280_humidity;BME280_pressure;Samples;Min_cycle;Max_cycle;Signal;HPM_P1;HPM_P2
2023/02/09 00:01:22;;;;;;;14.00;7.43;;;3.50;66.40;;;;;;4653300;30;20204;-78
2023/02/09 00:03:48;;;;;;;14.32;7.32;;;3.50;66.70;;;;;;4647364;30;21375;-80
2023/02/09 00:06:17;;;;;;;13.90;7.65;;;3.50;66.90;;;;;;4654896;30;20214;-76
2023/02/09 00:08:43;;;;;;;15.43;7.57;;;3.40;67.20;;;;;;4653189;30;20229;-77
2023/02/09 00:11:14;;;;;;;14.98;7.82;;;3.40;67.50;;;;;;4656188;30;20212;-80
2023/02/09 00:13:41;;;;;;;12.20;7.50;;;3.40;67.70;;;;;;4656767;30;20197;-82
2023/02/09 00:16:07;;;;;;;12.82;7.38;;;3.40;67.80;;;;;;4649152;30;20206;-80
2023/02/09 00:18:33;;;;;;;12.68;7.30;;;3.40;68.10;;;;;;4656597;30;20508;-77
2023/02/09 00:21:08;;;;;;;15.13;7.85;;;3.40;68.20;;;;;;4658808;30;20674;-77
2023/02/09 00:23:38;;;;;;;11.30;7.10;;;3.30;68.40;;;;;;4632910;30;20221;-81
2023/02/09 00:26:07;;;;;;;12.00;7.35;;;3.30;68.50;;;;;;4654958;30;20206;-77
2023/02/09 00:28:33;;;;;;;13.27;7.30;;;3.30;69.00;;;;;;4654888;30;20198;-79
2023/02/09 00:30:59;;;;;;;13.85;8.23;;;3.20;70.00;;;;;;4654245;30;20198;-78
2023/02/09 00:33:25;;;;;;;13.52;7.70;;;3.20;69.30;;;;;;4655132;30;20340;-77
2023/02/09 00:35:50;;;;;;;14.35;7.80;;;3.20;69.60;;;;;;4653981;30;20205;-78
2023/02/09 00:38:16;;;;;;;15.90;7.82;;;3.10;69.80;;;;;;4626404;30;20203;-79
2023/02/09 00:40:42;;;;;;;19.15;7.95;;;3.10;69.90;;;;;;4649592;30;20943;-78
2023/02/09 00:43:09;;;;;;;12.52;7.78;;;3.10;70.10;;;;;;4645147;30;20379;-79
2023/02/09 00:45:35;;;;;;;12.80;7.07;;;3.10;70.10;;;;;;4653162;30;20279;-77
2023/02/09 00:48:00;;;;;;;14.23;7.88;;;3.10;70.20;;;;;;4633577;30;21116;-79
2023/02/09 00:50:27;;;;;;;13.70;8.63;;;3.10;70.40;;;;;;4651853;30;20196;-78
2023/02/09 00:52:53;;;;;;;13.48;7.80;;;3.10;70.50;;;;;;4652128;30;20829;-78
2023/02/09 00:55:20;;;;;;;16.40;7.88;;;3.10;70.80;;;;;;4652327;30;20333;-79
2023/02/09 00:57:45;;;;;;;18.38;8.32;;;3.10;71.00;;;;;;4639528;30;20201;-78
2023/02/09 01:00:13;;;;;;;13.20;8.20;;;3.10;71.00;;;;;;4639501;30;20272;-83
2023/02/09 01:02:39;;;;;;;12.80;7.50;;;3.10;71.30;;;;;;4651839;30;20691;-81
2023/02/09 01:05:05;;;;;;;13.30;8.02;;;3.10;71.40;;;;;;4628346;30;20228;-79
2023/02/09 01:07:32;;;;;;;15.27;8.27;;;3.10;71.50;;;;;;4637125;30;20327;-82
2023/02/09 01:09:58;;;;;;;15.70;7.80;;;3.20;71.80;;;;;;4654985;30;20288;-78
2023/02/09 01:12:26;;;;;;;14.23;7.95;;;3.10;72.10;;;;;;4637778;30;20809;-81
2023/02/09 01:14:51;;;;;;;14.90;7.35;;;3.10;72.30;;;;;;4653452;30;20201;-79
2023/02/09 01:17:18;;;;;;;15.02;8.55;;;3.10;72.60;;;;;;4653131;30;20213;-77
2023/02/09 01:19:43;;;;;;;13.18;7.55;;;3.10;72.70;;;;;;4634962;30;20220;-81
2023/02/09 01:22:11;;;;;;;15.27;8.00;;;3.00;72.80;;;;;;4656011;30;20840;-78
2023/02/09 01:24:38;;;;;;;16.58;7.60;;;3.00;73.10;;;;;;4640865;30;20229;-80
2023/02/09 01:27:04;;;;;;;13.93;7.57;;;3.00;73.20;;;;;;4656428;30;20200;-78
2023/02/09 01:29:30;;;;;;;14.45;7.88;;;3.00;73.50;;;;;;4654678;30;20201;-76
2023/02/09 01:31:56;;;;;;;11.98;7.18;;;3.00;73.70;;;;;;4631690;30;20749;-81
2023/02/09 01:34:21;;;;;;;21.73;8.75;;;3.00;73.80;;;;;;4641319;30;20205;-78
2023/02/09 01:36:47;;;;;;;14.55;7.82;;;3.00;74.10;;;;;;4654791;30;20203;-78
2023/02/09 01:39:13;;;;;;;14.73;7.50;;;3.00;74.20;;;;;;4642141;30;20209;-79
2023/02/09 01:41:40;;;;;;;14.07;7.32;;;3.00;74.40;;;;;;4656127;30;20209;-78
2023/02/09 01:44:14;;;;;;;13.73;7.57;;;2.90;74.50;;;;;;4656022;30;20232;-78
2023/02/09 01:46:40;;;;;;;13.32;8.02;;;2.90;74.90;;;;;;4657713;30;20206;-81
2023/02/09 01:49:22;;;;;;;13.00;7.55;;;2.90;75.30;;;;;;4641078;30;22286;-79
2023/02/09 01:52:03;;;;;;;14.68;7.85;;;2.90;75.40;;;;;;4641303;30;20703;-77
2023/02/09 01:54:35;;;;;;;16.15;7.53;;;2.90;75.90;;;;;;4654852;30;20252;-76
2023/02/09 01:57:14;;;;;;;16.50;7.15;;;2.80;76.00;;;;;;4654013;30;20291;-77
2023/02/09 01:59:43;;;;;;;16.70;7.95;;;2.80;76.20;;;;;;4654138;30;20205;-80
2023/02/09 02:02:10;;;;;;;19.77;8.05;;;2.80;76.40;;;;;;4654289;30;20204;-78
2023/02/09 02:04:38;;;;;;;13.07;8.13;;;2.80;76.80;;;;;;4653490;30;20220;-77
2023/02/09 02:07:17;;;;;;;19.73;7.55;;;2.70;76.60;;;;;;4634404;30;20216;-80
2023/02/09 02:09:43;;;;;;;12.73;7.53;;;2.70;76.80;;;;;;4656219;30;20266;-80
2023/02/09 02:12:09;;;;;;;16.80;8.40;;;2.70;77.30;;;;;;4634040;30;20201;-78
2023/02/09 02:14:37;;;;;;;14.15;7.57;;;2.70;77.30;;;;;;4660201;30;20931;-79
2023/02/09 02:17:25;;;;;;;14.52;7.63;;;2.70;77.50;;;;;;4651587;30;20609;-82
2023/02/09 02:20:03;;;;;;;11.90;7.07;;;2.70;77.80;;;;;;4651236;30;20578;-80
2023/02/09 02:23:01;;;;;;;16.02;6.97;;;2.70;78.10;;;;;;4655190;30;20339;-77
2023/02/09 02:26:18;;;;;;;20.45;7.85;;;2.70;78.40;;;;;;4587532;30;20307;-75
2023/02/09 02:29:00;;;;;;;15.27;7.72;;;2.60;78.50;;;;;;4642164;30;20308;-79
2023/02/09 02:31:47;;;;;;;14.32;6.95;;;2.60;79.00;;;;;;4656554;30;20194;-79
2023/02/09 02:34:22;;;;;;;18.92;8.02;;;2.60;79.00;;;;;;4656755;30;20258;-77
2023/02/09 02:36:58;;;;;;;15.95;8.18;;;2.60;79.10;;;;;;4634186;30;20189;-77
2023/02/09 02:39:39;;;;;;;11.82;7.18;;;2.60;79.70;;;;;;4655516;30;20192;-78
2023/02/09 02:45:37;;;;;;;16.67;7.75;;;2.50;79.80;;;;;;4653314;30;20278;-79
2023/02/09 02:48:11;;;;;;;15.65;7.05;;;2.50;80.50;;;;;;4652691;30;20284;-81
2023/02/09 02:50:44;;;;;;;15.00;8.15;;;2.50;80.60;;;;;;4660462;30;20224;-77
2023/02/09 02:53:13;;;;;;;14.73;7.20;;;2.40;81.30;;;;;;4654766;30;20193;-77
2023/02/09 02:55:41;;;;;;;16.50;7.28;;;2.40;81.30;;;;;;4623729;30;20240;-78
2023/02/09 02:58:10;;;;;;;12.88;7.43;;;2.40;81.80;;;;;;4639482;30;20202;-82
2023/02/09 03:00:45;;;;;;;14.27;7.38;;;2.30;81.60;;;;;;4631878;30;20675;-79
2023/02/09 03:03:21;;;;;;;13.85;7.07;;;2.30;82.20;;;;;;4653570;30;20333;-81
2023/02/09 03:05:47;;;;;;;15.68;8.15;;;2.30;82.80;;;;;;4648527;30;20205;-77
2023/02/09 03:08:13;;;;;;;17.23;8.43;;;2.30;83.00;;;;;;4653954;30;20280;-78
2023/02/09 03:10:40;;;;;;;13.73;7.47;;;2.30;83.20;;;;;;4640543;30;20215;-78
2023/02/09 03:13:32;;;;;;;13.65;8.07;;;2.30;83.40;;;;;;4653916;30;20592;-77
2023/02/09 03:16:13;;;;;;;14.18;7.57;;;2.20;84.00;;;;;;4654299;30;20277;-77
2023/02/09 03:19:24;;;;;;;18.35;7.55;;;2.20;83.90;;;;;;4653228;30;20275;-78
2023/02/09 03:22:03;;;;;;;12.68;7.32;;;2.20;84.30;;;;;;4640494;30;20215;-80
2023/02/09 03:25:02;;;;;;;17.55;8.18;;;2.20;84.50;;;;;;4651371;30;20225;-79
2023/02/09 03:27:34;;;;;;;17.83;8.38;;;2.20;84.70;;;;;;4649853;30;20213;-79
2023/02/09 03:30:03;;;;;;;14.27;7.93;;;2.20;84.80;;;;;;4655974;30;20191;-77
2023/02/09 03:32:29;;;;;;;14.00;7.47;;;2.10;85.10;;;;;;4653814;30;20205;-79
2023/02/09 03:34:56;;;;;;;14.98;7.75;;;2.20;85.30;;;;;;4653190;30;20207;-79
2023/02/09 03:37:23;;;;;;;14.93;8.15;;;2.20;85.50;;;;;;4638582;30;20332;-77
2023/02/09 03:39:49;;;;;;;15.80;7.70;;;2.20;85.60;;;;;;4654925;30;20300;-77
2023/02/09 03:42:15;;;;;;;14.85;8.40;;;2.20;86.10;;;;;;4653781;30;20201;-79
2023/02/09 03:44:41;;;;;;;17.67;8.93;;;2.10;86.00;;;;;;4651314;30;20312;-79
2023/02/09 03:47:08;;;;;;;13.93;8.18;;;2.10;86.80;;;;;;4640123;30;20735;-78
2023/02/09 03:49:38;;;;;;;15.82;7.97;;;2.10;86.50;;;;;;4652534;30;20296;-79
2023/02/09 03:52:05;;;;;;;14.23;7.78;;;2.10;86.90;;;;;;4657418;30;20681;-79
2023/02/09 03:54:32;;;;;;;13.85;8.23;;;2.10;87.00;;;;;;4652106;30;20244;-76
2023/02/09 03:56:59;;;;;;;13.93;8.02;;;2.10;87.20;;;;;;4653419;30;20238;-78
2023/02/09 03:59:26;;;;;;;16.42;7.75;;;2.10;87.60;;;;;;4653674;30;20708;-77
2023/02/09 04:01:55;;;;;;;14.85;8.00;;;2.00;88.00;;;;;;4639950;30;20230;-79
2023/02/09 04:04:21;;;;;;;14.40;8.02;;;2.00;88.20;;;;;;4635511;30;20620;-79
2023/02/09 04:06:48;;;;;;;16.08;8.07;;;2.00;88.20;;;;;;4653093;30;20247;-77
2023/02/09 04:09:14;;;;;;;15.65;8.13;;;2.00;88.30;;;;;;4653144;30;20216;-82
2023/02/09 04:11:40;;;;;;;17.63;8.60;;;2.00;88.60;;;;;;4653351;30;20321;-80
2023/02/09 04:14:07;;;;;;;15.85;8.32;;;2.00;88.60;;;;;;4653286;30;20201;-78
2023/02/09 04:16:34;;;;;;;14.52;7.97;;;2.00;89.10;;;;;;4656573;30;20247;-78
2023/02/09 04:19:01;;;;;;;14.32;7.47;;;2.00;89.10;;;;;;4631324;30;20201;-81
2023/02/09 04:21:27;;;;;;;15.60;8.68;;;2.00;89.20;;;;;;4664894;30;20208;-77
2023/02/09 04:23:52;;;;;;;15.73;8.02;;;2.00;89.40;;;;;;4648560;30;20241;-81
2023/02/09 04:26:19;;;;;;;15.63;8.32;;;2.00;89.70;;;;;;4658857;30;20637;-77
2023/02/09 04:28:44;;;;;;;16.63;7.68;;;2.00;89.80;;;;;;4658586;30;20244;-76
2023/02/09 04:31:11;;;;;;;15.10;7.45;;;1.90;89.80;;;;;;4666048;30;20193;-76
2023/02/09 04:33:37;;;;;;;14.68;7.65;;;1.90;90.00;;;;;;4650471;30;20731;-76
2023/02/09 04:36:04;;;;;;;15.52;8.05;;;1.90;90.00;;;;;;4647598;30;20276;-76
2023/02/09 04:38:30;;;;;;;13.68;7.82;;;1.90;90.00;;;;;;4660178;30;20189;-77
2023/02/09 04:40:58;;;;;;;14.02;7.78;;;1.90;90.00;;;;;;4665992;30;20280;-78
2023/02/09 04:43:24;;;;;;;13.00;7.47;;;1.90;90.10;;;;;;4665620;30;20588;-78
2023/02/09 04:45:50;;;;;;;14.90;7.25;;;1.90;90.20;;;;;;4650574;30;20651;-77
2023/02/09 04:48:18;;;;;;;18.98;7.47;;;1.90;90.20;;;;;;4649551;30;20292;-76
2023/02/09 04:50:44;;;;;;;13.90;7.18;;;1.80;90.20;;;;;;4665043;30;20197;-76
2023/02/09 04:53:10;;;;;;;12.88;6.97;;;1.80;90.30;;;;;;4649415;30;20693;-76
2023/02/09 04:55:41;;;;;;;14.90;7.60;;;1.90;90.30;;;;;;4665325;30;20772;-77
2023/02/09 05:00:55;;;;;;;15.85;8.50;;;1.80;90.40;;;;;;4665458;30;20247;-76
2023/02/09 05:03:21;;;;;;;16.13;7.68;;;1.80;90.40;;;;;;4649722;30;20292;-77
2023/02/09 05:05:46;;;;;;;12.98;7.25;;;1.80;90.40;;;;;;4664535;30;20667;-77
2023/02/09 05:08:12;;;;;;;15.93;7.10;;;1.80;90.60;;;;;;4664088;30;20301;-77
2023/02/09 05:10:38;;;;;;;12.25;7.53;;;1.70;90.60;;;;;;4664801;30;20201;-77
2023/02/09 05:13:03;;;;;;;14.07;7.30;;;1.80;90.70;;;;;;4648852;30;20208;-78
2023/02/09 05:15:29;;;;;;;14.02;7.85;;;1.80;90.70;;;;;;4665365;30;20197;-76
2023/02/09 05:17:55;;;;;;;13.07;7.55;;;1.70;90.70;;;;;;4649953;30;20197;-78
2023/02/09 05:20:21;;;;;;;11.98;7.03;;;1.70;90.70;;;;;;4664776;30;20197;-77
2023/02/09 05:22:46;;;;;;;12.85;7.28;;;1.80;90.70;;;;;;4663838;30;20220;-77
2023/02/09 05:25:12;;;;;;;13.60;7.20;;;1.80;90.80;;;;;;4664915;30;20235;-77
2023/02/09 05:27:38;;;;;;;17.08;8.27;;;1.80;90.70;;;;;;4654600;30;20239;-76
2023/02/09 05:30:04;;;;;;;13.10;7.25;;;1.80;90.80;;;;;;4664890;30;20225;-78
2023/02/09 05:32:30;;;;;;;15.95;7.13;;;1.80;90.80;;;;;;4648622;30;20258;-77
2023/02/09 05:34:56;;;;;;;13.98;7.88;;;1.70;91.20;;;;;;4665190;30;20210;-76
2023/02/09 05:37:22;;;;;;;14.35;7.18;;;1.70;90.80;;;;;;4664837;30;20190;-77
2023/02/09 05:39:49;;;;;;;13.65;7.03;;;1.80;91.20;;;;;;4649723;30;20667;-75
2023/02/09 05:42:15;;;;;;;15.55;7.00;;;1.70;90.90;;;;;;4650318;30;20248;-78
2023/02/09 05:44:42;;;;;;;13.00;7.65;;;1.70;90.90;;;;;;4662465;30;20229;-76
2023/02/09 05:47:08;;;;;;;15.93;7.00;;;1.70;91.00;;;;;;4664488;30;20252;-77
2023/02/09 05:49:33;;;;;;;14.25;7.40;;;1.70;91.10;;;;;;4664975;30;20578;-77
2023/02/09 05:51:59;;;;;;;15.15;7.82;;;1.70;91.10;;;;;;4663040;30;20205;-78
2023/02/09 05:54:25;;;;;;;15.95;7.55;;;1.70;91.20;;;;;;4651951;30;20328;-77
2023/02/09 05:56:51;;;;;;;15.10;7.15;;;1.60;91.40;;;;;;4664258;30;20209;-77
2023/02/09 05:59:17;;;;;;;13.68;6.75;;;1.60;91.20;;;;;;4641365;30;20201;-77
2023/02/09 06:01:43;;;;;;;16.58;7.55;;;1.60;91.30;;;;;;4648963;30;20275;-76
2023/02/09 06:04:08;;;;;;;12.57;6.82;;;1.60;91.40;;;;;;4664940;30;20296;-76
2023/02/09 06:06:34;;;;;;;13.10;6.28;;;1.60;91.50;;;;;;4664758;30;20288;-77
2023/02/09 06:09:00;;;;;;;13.57;7.10;;;1.60;91.40;;;;;;4667332;30;20561;-76
2023/02/09 06:11:27;;;;;;;21.38;7.93;;;1.60;91.50;;;;;;4638323;30;20542;-76
2023/02/09 06:13:52;;;;;;;13.57;7.15;;;1.60;91.50;;;;;;4667650;30;20213;-76
2023/02/09 06:16:18;;;;;;;12.73;7.15;;;1.60;91.50;;;;;;4668219;30;20212;-77
2023/02/09 06:18:44;;;;;;;15.93;7.45;;;1.50;91.60;;;;;;4667786;30;20241;-78
2023/02/09 06:21:10;;;;;;;14.10;7.72;;;1.50;91.60;;;;;;4666703;30;20248;-77
2023/02/09 06:23:37;;;;;;;15.50;6.32;;;1.50;91.70;;;;;;4668825;30;20312;-76
2023/02/09 06:26:10;;;;;;;13.43;7.05;;;1.50;91.70;;;;;;4681340;30;20592;-76
2023/02/09 06:28:36;;;;;;;11.88;6.45;;;1.50;91.70;;;;;;4662488;30;20197;-77
2023/02/09 06:31:04;;;;;;;14.23;6.90;;;1.50;91.80;;;;;;4659259;30;20224;-77
2023/02/09 06:33:31;;;;;;;15.45;8.00;;;1.50;91.80;;;;;;4666961;30;20205;-76
2023/02/09 06:35:57;;;;;;;13.25;7.22;;;1.50;91.90;;;;;;4667763;30;20209;-77
2023/02/09 06:38:23;;;;;;;18.52;7.05;;;1.50;92.00;;;;;;4651964;30;20574;-76
2023/02/09 06:40:49;;;;;;;13.90;7.82;;;1.50;92.00;;;;;;4666759;30;20239;-76
2023/02/09 06:43:16;;;;;;;14.15;7.20;;;1.50;92.00;;;;;;4667340;30;20255;-76
2023/02/09 06:45:42;;;;;;;15.38;7.78;;;1.50;92.10;;;;;;4652782;30;20255;-75
2023/02/09 06:48:08;;;;;;;13.45;7.90;;;1.50;92.20;;;;;;4652006;30;20185;-76
2023/02/09 06:50:35;;;;;;;16.50;7.65;;;1.50;92.20;;;;;;4637119;30;20288;-76
2023/02/09 06:53:01;;;;;;;15.57;7.78;;;1.40;92.30;;;;;;4666947;30;20213;-76
2023/02/09 06:55:27;;;;;;;13.07;7.68;;;1.50;92.30;;;;;;4666732;30;20233;-76
2023/02/09 06:57:54;;;;;;;13.57;7.28;;;1.40;92.40;;;;;;4661788;30;20206;-75
2023/02/09 07:00:20;;;;;;;12.43;8.05;;;1.40;92.40;;;;;;4684087;30;20291;-78
2023/02/09 07:02:46;;;;;;;14.43;7.32;;;1.40;92.50;;;;;;4667093;30;20201;-79
2023/02/09 07:05:14;;;;;;;12.82;6.95;;;1.40;92.50;;;;;;4666730;30;20276;-77
2023/02/09 07:07:40;;;;;;;19.23;8.68;;;1.50;92.60;;;;;;4650026;30;20210;-78
2023/02/09 07:10:07;;;;;;;15.07;8.05;;;1.40;92.70;;;;;;4665947;30;20206;-78
2023/02/09 07:12:33;;;;;;;14.30;7.28;;;1.40;93.10;;;;;;4665257;30;20189;-76
2023/02/09 07:14:59;;;;;;;14.43;8.02;;;1.40;92.80;;;;;;4651144;30;20201;-77
2023/02/09 07:17:28;;;;;;;19.05;7.78;;;1.40;92.90;;;;;;4651859;30;20207;-76
2023/02/09 07:19:55;;;;;;;13.13;7.53;;;1.40;93.10;;;;;;4635412;30;20194;-82
2023/02/09 07:22:21;;;;;;;15.35;8.20;;;1.40;93.10;;;;;;4666481;30;20196;-77
2023/02/09 07:24:47;;;;;;;19.08;7.68;;;1.40;93.20;;;;;;4659132;30;20221;-78
2023/02/09 07:27:14;;;;;;;14.43;8.18;;;1.40;93.30;;;;;;4666229;30;20675;-77
2023/02/09 07:29:40;;;;;;;15.55;7.90;;;1.40;93.20;;;;;;4666625;30;20287;-76
2023/02/09 07:32:06;;;;;;;13.77;7.60;;;1.40;93.30;;;;;;4650398;30;20284;-77
2023/02/09 07:34:33;;;;;;;16.17;7.43;;;1.50;93.20;;;;;;4649202;30;20233;-76
2023/02/09 07:36:58;;;;;;;16.40;9.02;;;1.50;93.30;;;;;;4650843;30;20225;-75
2023/02/09 07:39:25;;;;;;;14.05;7.55;;;1.50;93.40;;;;;;4665201;30;20228;-76
2023/02/09 07:41:51;;;;;;;14.07;7.93;;;1.50;93.30;;;;;;4664574;30;20197;-77
2023/02/09 07:44:17;;;;;;;14.52;7.60;;;1.50;93.30;;;;;;4651003;30;20284;-76
2023/02/09 07:46:42;;;;;;;17.88;8.40;;;1.50;93.30;;;;;;4666117;30;20202;-74
2023/02/09 07:49:08;;;;;;;20.35;8.48;;;1.50;93.30;;;;;;4664556;30;20205;-75
2023/02/09 07:51:34;;;;;;;17.13;7.30;;;1.60;93.50;;;;;;4647195;30;20240;-75
2023/02/09 07:54:01;;;;;;;15.95;8.27;;;1.60;93.70;;;;;;4660458;30;20681;-76
2023/02/09 07:56:27;;;;;;;16.25;8.77;;;1.60;93.30;;;;;;4649291;30;20762;-76
2023/02/09 07:58:54;;;;;;;13.27;7.88;;;1.70;93.50;;;;;;4675109;30;20197;-76
2023/02/09 08:01:19;;;;;;;16.05;8.02;;;1.70;93.50;;;;;;4664196;30;20201;-78
2023/02/09 08:03:47;;;;;;;19.70;8.40;;;1.70;93.60;;;;;;4635473;30;20229;-76
2023/02/09 08:06:34;;;;;;;16.55;8.57;;;1.60;93.50;;;;;;4665007;30;20280;-77
2023/02/09 08:09:01;;;;;;;14.73;8.05;;;1.80;93.60;;;;;;4665933;30;20289;-76
2023/02/09 08:11:47;;;;;;;16.13;8.55;;;1.80;93.60;;;;;;4665720;30;20189;-77
2023/02/09 08:14:35;;;;;;;16.73;8.43;;;1.90;93.60;;;;;;4664373;30;20197;-77
2023/02/09 08:17:26;;;;;;;18.67;9.20;;;1.90;93.60;;;;;;4665717;30;20209;-78
2023/02/09 08:20:00;;;;;;;17.52;8.23;;;1.90;93.60;;;;;;4665237;30;20200;-77
2023/02/09 08:22:30;;;;;;;15.38;7.85;;;2.00;93.60;;;;;;4665951;30;20182;-76
2023/02/09 08:24:57;;;;;;;17.70;8.10;;;2.00;93.60;;;;;;4650943;30;20548;-77
2023/02/09 08:27:23;;;;;;;21.27;8.75;;;2.00;93.60;;;;;;4656603;30;20197;-77
2023/02/09 08:29:49;;;;;;;13.95;7.55;;;2.00;93.50;;;;;;4653656;30;20216;-74
2023/02/09 08:32:15;;;;;;;18.58;8.95;;;2.10;93.60;;;;;;4677521;30;20749;-77
2023/02/09 08:34:40;;;;;;;16.88;8.60;;;2.10;93.60;;;;;;4669729;30;20209;-77
2023/02/09 08:37:06;;;;;;;21.45;9.15;;;2.20;93.70;;;;;;4663948;30;20193;-76
2023/02/09 08:39:32;;;;;;;18.05;9.25;;;2.20;93.70;;;;;;4664631;30;20710;-77
2023/02/09 08:41:57;;;;;;;14.80;9.15;;;2.20;93.60;;;;;;4650473;30;20201;-76
2023/02/09 08:44:23;;;;;;;16.90;8.45;;;2.30;93.70;;;;;;4665211;30;20233;-76
2023/02/09 08:46:49;;;;;;;14.85;8.32;;;2.30;93.70;;;;;;4665261;30;20208;-77
2023/02/09 08:49:15;;;;;;;17.45;8.05;;;2.30;93.70;;;;;;4649436;30;20603;-77
2023/02/09 08:51:41;;;;;;;16.45;9.48;;;2.40;93.60;;;;;;4665244;30;20682;-76
2023/02/09 08:54:06;;;;;;;15.68;8.98;;;2.50;93.70;;;;;;4665318;30;20568;-77
2023/02/09 08:56:32;;;;;;;17.65;9.10;;;2.50;93.60;;;;;;4634789;30;20252;-77
2023/02/09 08:58:58;;;;;;;15.93;8.20;;;2.60;93.60;;;;;;4665360;30;20197;-76
2023/02/09 09:01:23;;;;;;;18.35;9.63;;;2.70;93.60;;;;;;4665582;30;20193;-76
2023/02/09 09:03:49;;;;;;;18.00;8.95;;;2.80;93.60;;;;;;4665691;30;20224;-76
2023/02/09 09:06:15;;;;;;;17.30;9.52;;;2.80;93.60;;;;;;4665983;30;20659;-77
2023/02/09 09:08:41;;;;;;;18.15;9.13;;;2.90;93.50;;;;;;4649503;30;20256;-77
2023/02/09 09:11:11;;;;;;;19.42;9.68;;;3.00;93.50;;;;;;4665164;30;20559;-77
2023/02/09 09:13:38;;;;;;;16.35;9.50;;;3.00;93.50;;;;;;4651018;30;20252;-77
2023/02/09 09:16:04;;;;;;;16.88;9.85;;;3.10;93.50;;;;;;4665740;30;20713;-78
2023/02/09 09:18:30;;;;;;;18.08;9.90;;;3.10;93.40;;;;;;4664416;30;20659;-77
2023/02/09 09:20:55;;;;;;;19.95;9.30;;;3.20;93.50;;;;;;4649691;30;20196;-77
2023/02/09 09:23:21;;;;;;;19.25;9.40;;;3.30;93.40;;;;;;4664872;30;20200;-77
2023/02/09 09:25:47;;;;;;;19.00;10.05;;;3.40;93.40;;;;;;4659322;30;20205;-79
2023/02/09 09:28:13;;;;;;;26.27;10.63;;;3.50;93.30;;;;;;4640744;30;20532;-75
2023/02/09 09:30:39;;;;;;;17.88;10.40;;;3.50;93.20;;;;;;4664880;30;20208;-76
2023/02/09 09:33:05;;;;;;;19.73;10.20;;;3.60;93.20;;;;;;4665060;30;20661;-77
2023/02/09 09:35:31;;;;;;;18.17;9.57;;;3.70;93.10;;;;;;4649060;30;20206;-78
2023/02/09 09:37:57;;;;;;;21.65;10.57;;;3.70;93.10;;;;;;4663432;30;20276;-77
2023/02/09 09:40:30;;;;;;;17.77;10.18;;;3.80;93.10;;;;;;4664597;30;20189;-77
2023/02/09 09:43:05;;;;;;;17.52;10.10;;;3.90;93.00;;;;;;4667024;30;20197;-76
2023/02/09 09:45:36;;;;;;;22.25;10.82;;;4.00;93.00;;;;;;4658132;30;20209;-77
2023/02/09 09:48:02;;;;;;;22.80;10.88;;;4.10;92.90;;;;;;4654848;30;20241;-79
2023/02/09 09:50:38;;;;;;;19.92;10.80;;;4.20;92.80;;;;;;4658941;30;20197;-78
2023/02/09 09:53:30;;;;;;;16.67;10.48;;;4.30;92.70;;;;;;4667687;30;20193;-77
2023/02/09 09:55:58;;;;;;;17.65;10.68;;;4.30;92.70;;;;;;4638892;30;20236;-76
2023/02/09 09:58:25;;;;;;;23.08;10.30;;;4.40;92.80;;;;;;4652798;30;20260;-77
2023/02/09 10:00:51;;;;;;;18.70;11.27;;;4.40;92.80;;;;;;4652972;30;20213;-78
2023/02/09 10:03:19;;;;;;;22.13;11.05;;;4.50;92.90;;;;;;4666967;30;20201;-78
2023/02/09 10:05:49;;;;;;;21.85;11.00;;;4.40;92.90;;;;;;4653756;30;20292;-77
2023/02/09 10:08:42;;;;;;;22.58;11.73;;;4.50;92.90;;;;;;4651146;30;20198;-79
2023/02/09 10:11:11;;;;;;;19.75;11.25;;;4.50;93.00;;;;;;4619213;30;20585;-75
2023/02/09 10:13:52;;;;;;;22.50;11.43;;;4.60;93.10;;;;;;4660366;30;20283;-80
2023/02/09 10:16:20;;;;;;;20.90;10.50;;;4.60;93.10;;;;;;4668193;30;20209;-77
2023/02/09 10:18:57;;;;;;;21.58;11.35;;;4.60;93.30;;;;;;4666930;30;20201;-79
2023/02/09 10:21:27;;;;;;;18.17;11.18;;;4.60;93.40;;;;;;4658644;30;20224;-77
2023/02/09 10:23:59;;;;;;;18.30;11.20;;;4.60;93.40;;;;;;4651983;30;20657;-80
2023/02/09 10:26:26;;;;;;;18.58;11.25;;;4.70;93.50;;;;;;4668295;30;20225;-77
2023/02/09 10:28:55;;;;;;;22.80;11.60;;;4.70;93.60;;;;;;4668343;30;20193;-77
2023/02/09 10:31:26;;;;;;;22.25;12.57;;;4.70;93.80;;;;;;4669543;30;20647;-77
2023/02/09 10:34:21;;;;;;;24.67;12.48;;;4.70;93.90;;;;;;4675715;30;20197;-76
2023/02/09 10:37:28;;;;;;;23.38;11.77;;;4.60;94.00;;;;;;4665931;30;20209;-76
2023/02/09 10:40:11;;;;;;;20.25;12.02;;;4.60;94.30;;;;;;4649304;30;20735;-81
2023/02/09 10:42:40;;;;;;;21.00;11.77;;;4.60;94.50;;;;;;4650698;30;20201;-76
2023/02/09 10:45:17;;;;;;;22.40;12.55;;;4.60;94.80;;;;;;4666266;30;20221;-81
2023/02/09 10:47:59;;;;;;;23.52;12.32;;;4.60;94.70;;;;;;4640552;30;20196;-76
2023/02/09 10:50:25;;;;;;;23.42;12.45;;;4.70;94.90;;;;;;4666375;30;20204;-78
2023/02/09 10:53:17;;;;;;;25.05;13.00;;;4.70;95.00;;;;;;4652543;30;20231;-77
2023/02/09 10:55:44;;;;;;;21.45;12.05;;;4.70;95.20;;;;;;4665198;30;20272;-77
2023/02/09 10:58:10;;;;;;;20.77;11.82;;;4.80;95.20;;;;;;4675117;30;20223;-77
2023/02/09 11:01:00;;;;;;;26.95;13.38;;;4.70;95.10;;;;;;4669913;30;20639;-76
2023/02/09 11:03:26;;;;;;;23.67;13.65;;;4.80;95.30;;;;;;4669164;30;20302;-76
2023/02/09 11:06:27;;;;;;;25.55;12.43;;;4.80;95.50;;;;;;4676852;30;20651;-83
2023/02/09 11:09:22;;;;;;;28.58;13.43;;;4.80;95.60;;;;;;4635562;30;20206;-76
2023/02/09 11:11:48;;;;;;;22.23;12.88;;;4.80;95.60;;;;;;4648177;30;20342;-76
2023/02/09 11:14:16;;;;;;;24.60;13.50;;;4.80;95.90;;;;;;4650470;30;20596;-77
2023/02/09 11:16:51;;;;;;;26.13;13.38;;;4.80;96.00;;;;;;4654890;30;20200;-76
2023/02/09 11:19:24;;;;;;;27.55;13.95;;;4.80;96.10;;;;;;4666868;30;20188;-77
2023/02/09 11:22:14;;;;;;;22.25;13.32;;;4.80;96.30;;;;;;4665502;30;20599;-77
2023/02/09 11:25:05;;;;;;;26.58;14.07;;;4.80;96.70;;;;;;4666643;30;20249;-77
2023/02/09 11:28:05;;;;;;;25.45;13.57;;;4.80;96.90;;;;;;4666971;30;20205;-76
2023/02/09 11:31:03;;;;;;;24.33;14.13;;;4.80;97.10;;;;;;4651103;30;20197;-77
2023/02/09 11:34:03;;;;;;;25.65;13.77;;;4.80;97.20;;;;;;4666334;30;20348;-77
2023/02/09 11:36:46;;;;;;;23.55;13.63;;;4.80;97.50;;;;;;4666657;30;20178;-78
2023/02/09 11:39:29;;;;;;;24.23;14.15;;;4.90;97.40;;;;;;4666365;30;20272;-76
2023/02/09 11:44:59;;;;;;;25.50;13.90;;;5.20;97.60;;;;;;4666156;30;20304;-78
2023/02/09 11:47:41;;;;;;;28.58;14.88;;;5.40;97.60;;;;;;4650612;30;20665;-76
2023/02/09 11:50:48;;;;;;;29.27;14.52;;;5.60;97.70;;;;;;4665550;30;20225;-76
2023/02/09 11:53:41;;;;;;;28.13;13.85;;;5.90;97.60;;;;;;4659540;30;20220;-76
2023/02/09 11:56:10;;;;;;;26.42;14.70;;;6.10;97.40;;;;;;4633685;30;20271;-77
2023/02/09 11:59:04;;;;;;;25.45;15.38;;;6.10;97.70;;;;;;4672037;30;20204;-77
2023/02/09 12:01:39;;;;;;;26.27;14.07;;;6.10;97.40;;;;;;4649673;30;20202;-77
2023/02/09 12:04:38;;;;;;;25.80;14.82;;;6.10;97.60;;;;;;4648785;30;20218;-76
2023/02/09 12:07:23;;;;;;;24.48;14.73;;;6.10;97.80;;;;;;4658449;30;20186;-75
2023/02/09 12:10:19;;;;;;;27.23;15.35;;;6.00;97.90;;;;;;4650936;30;20186;-77
2023/02/09 12:12:53;;;;;;;24.67;14.43;;;6.00;98.00;;;;;;4648656;30;20182;-75
2023/02/09 12:15:38;;;;;;;29.63;16.02;;;6.00;98.30;;;;;;4659621;30;20200;-76
2023/02/09 12:18:11;;;;;;;26.42;15.68;;;6.00;98.40;;;;;;4650965;30;20185;-76
2023/02/09 12:20:37;;;;;;;27.00;15.30;;;5.90;98.60;;;;;;4665066;30;20276;-80
2023/02/09 12:23:21;;;;;;;31.13;16.33;;;6.00;98.90;;;;;;4665403;30;20354;-75
2023/02/09 12:26:15;;;;;;;29.65;16.40;;;6.00;99.00;;;;;;4669777;30;20304;-76
2023/02/09 12:29:03;;;;;;;32.05;16.42;;;6.00;99.30;;;;;;4652353;30;20191;-75
2023/02/09 12:31:49;;;;;;;31.58;16.13;;;6.10;99.40;;;;;;4652406;30;20198;-77
2023/02/09 12:34:26;;;;;;;28.35;15.80;;;6.10;99.40;;;;;;4673227;30;20280;-78
2023/02/09 12:37:13;;;;;;;29.85;16.42;;;6.10;99.60;;;;;;4672367;30;20181;-77
2023/02/09 12:40:01;;;;;;;31.63;16.25;;;6.10;99.80;;;;;;4665506;30;20198;-77
2023/02/09 12:42:28;;;;;;;29.73;16.48;;;6.10;99.90;;;;;;4663664;30;20186;-76
2023/02/09 12:44:57;;;;;;;33.03;17.75;;;6.10;99.90;;;;;;4665186;30;20225;-76
2023/02/09 12:47:40;;;;;;;29.15;16.70;;;6.00;99.90;;;;;;4649984;30;20335;-76
2023/02/09 12:50:22;;;;;;;26.38;16.30;;;6.00;99.90;;;;;;4661953;30;20224;-76
2023/02/09 12:53:22;;;;;;;33.38;17.20;;;6.00;99.90;;;;;;4663562;30;20209;-77
2023/02/09 12:56:07;;;;;;;30.90;16.70;;;5.90;99.90;;;;;;4665244;30;20685;-76
2023/02/09 12:59:13;;;;;;;32.67;16.92;;;5.90;99.90;;;;;;4675667;30;20276;-76
2023/02/09 13:02:06;;;;;;;31.65;16.80;;;5.90;99.90;;;;;;4662876;30;20216;-78
2023/02/09 13:04:48;;;;;;;29.17;17.52;;;5.90;99.90;;;;;;4648427;30;20228;-77
2023/02/09 13:07:25;;;;;;;32.10;17.38;;;5.80;99.90;;;;;;4665406;30;20201;-78
2023/02/09 13:09:54;;;;;;;27.80;16.67;;;5.80;99.90;;;;;;4665639;30;20192;-77
2023/02/09 13:12:29;;;;;;;33.45;17.95;;;5.80;99.90;;;;;;4665477;30;20680;-77
2023/02/09 13:14:54;;;;;;;42.45;17.15;;;5.80;99.90;;;;;;4662731;30;20206;-78